createdAt,value
2023-02-17T00:01:33.165Z,101467.03
2023-02-17T00:04:36.769Z,101470.53
2023-02-17T00:07:40.656Z,101457.34
2023-02-17T00:10:44.356Z,101452.97
2023-02-17T00:13:48.277Z,101455.59
2023-02-17T00:16:51.737Z,101456.50
2023-02-17T00:19:58.620Z,101450.31
2023-02-17T00:23:02.070Z,101448.50
2023-02-17T00:26:07.170Z,101451.19
2023-02-17T00:29:11.037Z,101445.00
2023-02-17T00:32:15.710Z,101456.63
2023-02-17T00:35:19.119Z,101452.28
2023-02-17T00:38:22.796Z,101452.34
2023-02-17T00:41:29.227Z,101460.31
2023-02-17T00:44:33.632Z,101462.94
2023-02-17T00:47:37.098Z,101467.37
2023-02-17T00:50:40.481Z,101461.22
2023-02-17T00:53:44.738Z,101460.37
2023-02-17T00:56:47.975Z,101464.84
2023-02-17T00:59:51.452Z,101430.31
2023-02-17T01:02:55.189Z,101454.25
2023-02-17T01:06:00.429Z,101449.00
2023-02-17T01:09:06.045Z,101418.84
2023-02-17T01:12:12.859Z,101448.09
2023-02-17T01:15:17.309Z,101450.78
2023-02-17T01:18:24.972Z,101428.69
2023-02-17T01:21:30.024Z,101450.03
2023-02-17T01:24:34.624Z,101443.84
2023-02-17T01:27:40.345Z,101434.06
2023-02-17T01:30:43.946Z,101447.34
2023-02-17T01:33:51.158Z,101442.94
2023-02-17T01:36:54.918Z,101433.19
2023-02-17T01:40:02.239Z,101442.91
2023-02-17T01:43:07.965Z,101431.41
2023-02-17T01:46:12.261Z,101430.56
2023-02-17T01:49:35.124Z,101427.03
2023-02-17T01:52:40.099Z,101426.13
2023-02-17T01:55:45.483Z,101417.25
2023-02-17T01:58:59.354Z,101401.31
2023-02-17T02:02:05.459Z,101427.84
2023-02-17T02:05:11.950Z,101392.44
2023-02-17T02:08:16.230Z,101403.03
2023-02-17T02:11:19.961Z,101404.81
2023-02-17T02:14:24.685Z,101407.44
2023-02-17T02:17:35.804Z,101406.59
2023-02-17T02:20:57.417Z,101406.56
2023-02-17T02:24:25.033Z,101401.25
2023-02-17T02:27:56.659Z,101395.97
2023-02-17T02:31:01.033Z,101395.91
2023-02-17T02:34:15.443Z,101391.50
2023-02-17T02:37:26.839Z,101383.50
2023-02-17T02:40:36.943Z,101379.06
2023-02-17T02:43:41.834Z,101395.00
2023-02-17T02:46:45.454Z,101389.69
2023-02-17T02:49:50.091Z,101399.34
2023-02-17T02:53:09.072Z,101379.13
2023-02-17T02:56:52.211Z,101372.06
2023-02-17T03:00:20.705Z,101372.97
2023-02-17T03:03:35.737Z,101381.75
2023-02-17T03:07:03.659Z,101385.28
2023-02-17T03:10:07.982Z,101396.75
2023-02-17T03:13:12.941Z,101402.91
2023-02-17T03:16:16.445Z,101401.12
2023-02-17T03:19:23.769Z,101403.75
2023-02-17T03:22:36.917Z,101401.03
2023-02-17T03:25:41.473Z,101403.63
2023-02-17T03:28:46.157Z,101415.12
2023-02-17T03:31:49.521Z,101413.31
2023-02-17T03:34:53.058Z,101408.91
2023-02-17T03:37:56.291Z,101407.22
2023-02-17T03:40:59.721Z,101409.91
2023-02-17T03:44:02.932Z,101422.31
2023-02-17T03:47:07.261Z,101420.59
2023-02-17T03:50:10.899Z,101420.66
2023-02-17T03:53:14.448Z,101418.84
2023-02-17T03:56:18.875Z,101407.34
2023-02-17T03:59:22.526Z,101406.53
2023-02-17T04:02:25.745Z,101404.75
2023-02-17T04:05:29.150Z,101406.47
2023-02-17T04:08:33.217Z,101410.84
2023-02-17T04:11:38.196Z,101401.19
2023-02-17T04:14:41.389Z,101412.69
2023-02-17T04:17:45.809Z,101396.78
2023-02-17T04:20:50.998Z,101402.97
2023-02-17T04:23:55.341Z,101394.16
2023-02-17T04:26:58.460Z,101381.81
2023-02-17T04:30:02.279Z,101399.50
2023-02-17T04:33:06.701Z,101381.00
2023-02-17T04:36:11.607Z,101385.47
2023-02-17T04:39:15.093Z,101373.09
2023-02-17T04:42:18.485Z,101385.53
2023-02-17T04:45:22.219Z,101396.13
2023-02-17T04:48:29.153Z,101362.47
2023-02-17T04:51:32.316Z,101384.66
2023-02-17T04:54:35.896Z,101374.94
2023-02-17T04:57:39.410Z,101383.81
2023-02-17T05:00:42.811Z,101381.16
2023-02-17T05:03:46.050Z,101381.16
2023-02-17T05:06:49.790Z,101390.03
2023-02-17T05:09:54.490Z,101392.72
2023-02-17T05:12:57.945Z,101383.00
2023-02-17T05:16:01.568Z,101383.00
2023-02-17T05:19:05.398Z,101386.56
2023-02-17T05:22:08.667Z,101384.78
2023-02-17T05:25:12.160Z,101379.50
2023-02-17T05:28:15.463Z,101382.16
2023-02-17T05:31:19.999Z,101390.16
2023-02-17T05:34:23.233Z,101380.41
2023-02-17T05:37:27.776Z,101375.13
2023-02-17T05:40:31.856Z,101382.22
2023-02-17T05:43:35.328Z,101390.22
2023-02-17T05:46:38.592Z,101383.16
2023-02-17T05:49:42.408Z,101385.81
2023-02-17T05:52:45.781Z,101383.19
2023-02-17T05:55:49.354Z,101383.16
2023-02-17T05:58:53.747Z,101380.53
2023-02-17T06:01:57.407Z,101389.37
2023-02-17T06:05:00.996Z,101397.34
2023-02-17T06:08:04.209Z,101392.91
2023-02-17T06:11:07.658Z,101387.62
2023-02-17T06:14:10.860Z,101383.19
2023-02-17T06:17:14.432Z,101388.50
2023-02-17T06:20:18.099Z,101392.03
2023-02-17T06:23:21.504Z,101398.25
2023-02-17T06:26:24.936Z,101397.34
2023-02-17T06:29:28.862Z,101400.91
2023-02-17T06:32:32.086Z,101401.78
2023-02-17T06:35:35.568Z,101406.19
2023-02-17T06:38:38.774Z,101409.72
2023-02-17T06:41:43.014Z,101408.81
2023-02-17T06:44:48.386Z,101407.03
2023-02-17T06:47:52.852Z,101412.34
2023-02-17T06:50:56.096Z,101416.75
2023-02-17T06:54:00.153Z,101412.31
2023-02-17T06:57:03.342Z,101414.94
2023-02-17T07:00:11.787Z,101404.25
2023-02-17T07:03:18.289Z,101398.91
2023-02-17T07:06:26.325Z,101405.03
2023-02-17T07:09:29.811Z,101415.63
2023-02-17T07:12:34.574Z,101416.47
2023-02-17T07:15:39.025Z,101424.44
2023-02-17T07:18:42.684Z,101418.16
2023-02-17T07:21:46.538Z,101418.03
2023-02-17T07:24:49.993Z,101423.28
2023-02-17T07:27:53.252Z,101420.59
2023-02-17T07:30:56.781Z,101401.94
2023-02-17T07:34:04.392Z,101406.34
2023-02-17T07:37:09.077Z,101408.03
2023-02-17T07:40:12.962Z,101391.94
2023-02-17T07:43:16.350Z,101380.25
2023-02-17T07:46:21.358Z,101357.97
2023-02-17T07:49:24.959Z,101387.97
2023-02-17T07:52:28.299Z,101381.59
2023-02-17T07:55:31.971Z,101385.03
2023-02-17T07:58:37.380Z,101378.50
2023-02-17T08:01:41.821Z,101386.19
2023-02-17T08:04:45.339Z,101380.75
2023-02-17T08:07:48.591Z,101386.78
2023-02-17T08:11:10.795Z,101390.22
2023-02-17T08:14:14.145Z,101367.91
2023-02-17T08:17:17.597Z,101379.25
2023-02-17T08:20:20.797Z,101383.50
2023-02-17T08:23:24.362Z,101380.66
2023-02-17T08:26:28.243Z,101400.84
2023-02-17T08:29:32.002Z,101389.81
2023-02-17T08:32:35.343Z,101397.69
2023-02-17T08:35:39.014Z,101400.22
2023-02-17T08:38:42.558Z,101391.03
2023-02-17T08:41:46.865Z,101360.06
2023-02-17T08:44:51.108Z,101383.34
2023-02-17T08:47:54.529Z,101383.31
2023-02-17T08:50:57.730Z,101382.16
2023-02-17T08:54:02.796Z,101382.66
2023-02-17T08:57:06.114Z,101373.53
2023-02-17T09:00:10.758Z,101388.88
2023-02-17T09:03:14.809Z,101398.19
2023-02-17T09:06:21.575Z,101386.59
2023-02-17T09:09:29.377Z,101367.06
2023-02-17T09:12:33.205Z,101381.69
2023-02-17T09:15:36.659Z,101379.91
2023-02-17T09:18:40.005Z,101372.25
2023-02-17T09:21:43.234Z,101362.50
2023-02-17T09:24:47.269Z,101362.50
2023-02-17T09:27:50.525Z,101370.81
2023-02-17T09:30:54.072Z,101377.69
2023-02-17T09:33:58.405Z,101375.16
2023-02-17T09:37:01.974Z,101349.28
2023-02-17T09:40:07.723Z,101357.16
2023-02-17T09:43:16.102Z,101347.75
2023-02-17T09:46:32.032Z,101343.59
2023-02-17T09:49:40.177Z,101341.13
2023-02-17T09:52:53.761Z,101338.84
2023-02-17T09:56:01.726Z,101327.66
2023-02-17T09:59:16.145Z,101344.78
2023-02-17T10:02:27.862Z,101334.50
2023-02-17T10:05:40.956Z,101325.72
2023-02-17T10:09:17.269Z,101329.06
2023-02-17T10:12:26.294Z,101323.59
2023-02-17T10:15:36.954Z,101302.53
2023-02-17T10:18:47.786Z,101314.31
2023-02-17T10:22:14.421Z,101299.53
2023-02-17T10:25:42.743Z,101273.41
2023-02-17T10:29:14.622Z,101279.22
2023-02-17T10:32:26.443Z,101284.25
2023-02-17T10:35:52.501Z,101271.41
2023-02-17T10:39:44.574Z,101269.41
2023-02-17T10:42:50.464Z,101258.53
2023-02-17T10:45:54.741Z,101255.00
2023-02-17T10:48:59.824Z,101263.94
2023-02-17T10:52:13.929Z,101229.00
2023-02-17T10:55:23.882Z,101244.06
2023-02-17T10:58:40.540Z,101233.25
2023-02-17T11:01:44.204Z,101230.84
2023-02-17T11:04:51.128Z,101224.47
2023-02-17T11:08:22.198Z,101224.63
2023-02-17T11:11:28.438Z,101219.22
2023-02-17T11:14:33.775Z,101205.19
2023-02-17T11:17:41.044Z,101213.78
2023-02-17T11:20:44.213Z,101216.13
2023-02-17T11:24:01.673Z,101216.78
2023-02-17T11:27:24.749Z,101205.28
2023-02-17T11:30:30.949Z,101210.16
2023-02-17T11:33:39.967Z,101200.03
2023-02-17T11:36:45.992Z,101197.25
2023-02-17T11:39:54.314Z,101189.87
2023-02-17T11:43:03.023Z,101195.50
2023-02-17T11:46:30.566Z,101177.75
2023-02-17T11:49:42.396Z,101187.38
2023-02-17T11:52:48.754Z,101181.25
2023-02-17T11:56:13.737Z,101178.41
2023-02-17T11:59:16.856Z,101172.00
2023-02-17T12:02:40.067Z,101175.84
2023-02-17T12:06:09.077Z,101164.50
2023-02-17T12:09:27.274Z,101159.47
2023-02-17T12:13:08.289Z,101164.50
2023-02-17T12:16:11.593Z,101156.94
2023-02-17T12:19:25.530Z,101160.09
2023-02-17T12:22:44.341Z,101158.34
2023-02-17T12:25:56.068Z,101166.47
2023-02-17T12:29:05.323Z,101157.53
2023-02-17T12:32:50.345Z,101152.84
2023-02-17T12:36:01.689Z,101152.13
2023-02-17T12:39:21.413Z,101141.63
2023-02-17T12:42:34.644Z,101146.88
2023-02-17T12:45:43.521Z,101141.09
2023-02-17T12:49:00.124Z,101143.41
2023-02-17T12:52:14.462Z,101138.44
2023-02-17T12:55:24.950Z,101133.81
2023-02-17T12:58:29.633Z,101131.91
2023-02-17T13:01:33.324Z,101138.66
2023-02-17T13:04:37.442Z,101143.72
2023-02-17T13:07:51.428Z,101144.47
2023-02-17T13:11:11.244Z,101158.44
2023-02-17T13:14:27.753Z,101150.81
2023-02-17T13:17:41.726Z,101138.97
2023-02-17T13:20:55.904Z,101134.59
2023-02-17T13:24:02.480Z,101145.66
2023-02-17T13:27:20.831Z,101150.41
2023-02-17T13:30:25.573Z,101159.59
2023-02-17T13:33:32.005Z,101146.13
2023-02-17T13:36:38.182Z,101144.41
2023-02-17T13:39:41.485Z,101134.03
2023-02-17T13:42:53.100Z,101124.22
2023-02-17T13:46:06.471Z,101123.34
2023-02-17T13:49:22.587Z,101126.38
2023-02-17T13:52:28.925Z,101108.44
2023-02-17T13:55:32.749Z,101114.09
2023-02-17T13:58:41.319Z,101116.69
2023-02-17T14:01:46.967Z,101114.16
2023-02-17T14:04:53.369Z,101104.75
2023-02-17T14:08:03.713Z,101123.34
2023-02-17T14:11:17.262Z,101104.37
2023-02-17T14:14:32.717Z,101109.56
2023-02-17T14:17:36.714Z,101093.12
2023-02-17T14:20:41.549Z,101090.28
2023-02-17T14:23:52.411Z,101095.09
2023-02-17T14:27:03.074Z,101110.50
2023-02-17T14:30:07.746Z,101104.91
2023-02-17T14:33:15.712Z,101101.91
2023-02-17T14:36:36.074Z,101104.28
2023-02-17T14:39:39.352Z,101103.09
2023-02-17T14:42:43.156Z,101100.84
2023-02-17T14:45:46.704Z,101095.78
2023-02-17T14:48:51.701Z,101091.44
2023-02-17T14:51:56.392Z,101091.88
2023-02-17T14:55:00.598Z,101079.41
2023-02-17T14:58:04.383Z,101089.38
2023-02-17T15:01:11.385Z,101075.94
2023-02-17T15:04:15.017Z,101076.69
2023-02-17T15:07:20.303Z,101075.06
2023-02-17T15:10:28.365Z,101073.19
2023-02-17T15:13:32.188Z,101056.12
2023-02-17T15:16:36.044Z,101068.72
2023-02-17T15:19:40.473Z,101059.94
2023-02-17T15:22:45.036Z,101057.44
2023-02-17T15:25:49.523Z,101038.13
2023-02-17T15:28:57.598Z,101052.38
2023-02-17T15:32:04.771Z,101057.37
2023-02-17T15:35:23.498Z,101055.88
2023-02-17T15:38:28.923Z,101055.47
2023-02-17T15:41:34.186Z,101052.12
2023-02-17T15:44:57.816Z,101038.16
2023-02-17T15:48:05.276Z,101036.66
2023-02-17T15:51:13.400Z,101040.44
2023-02-17T15:54:19.455Z,101050.56
2023-02-17T15:57:25.808Z,101041.06
2023-02-17T16:00:33.778Z,101033.28
2023-02-17T16:03:38.079Z,101034.28
2023-02-17T16:06:42.312Z,101029.22
2023-02-17T16:09:46.775Z,101034.63
2023-02-17T16:12:52.506Z,101020.34
2023-02-17T16:15:59.703Z,101032.06
2023-02-17T16:19:03.887Z,101024.13
2023-02-17T16:22:12.046Z,101016.16
2023-02-17T16:25:17.677Z,101020.13
2023-02-17T16:28:22.650Z,101017.69
2023-02-17T16:31:26.618Z,101025.06
2023-02-17T16:34:33.558Z,101020.97
2023-02-17T16:37:37.019Z,101018.50
2023-02-17T16:40:49.549Z,101004.47
2023-02-17T16:43:54.095Z,101004.00
2023-02-17T16:47:01.345Z,101001.47
2023-02-17T16:50:09.060Z,100993.81
2023-02-17T16:53:15.675Z,100989.75
2023-02-17T16:56:30.639Z,100977.62
2023-02-17T16:59:35.469Z,100988.94
2023-02-17T17:02:39.633Z,100984.88
2023-02-17T17:05:44.431Z,100990.28
2023-02-17T17:08:49.529Z,100983.69
2023-02-17T17:11:54.986Z,100978.28
2023-02-17T17:14:59.880Z,100977.41
2023-02-17T17:18:09.333Z,100946.72
2023-02-17T17:21:16.599Z,100966.06
2023-02-17T17:24:22.091Z,100954.72
2023-02-17T17:27:31.627Z,100959.16
2023-02-17T17:30:38.532Z,100960.09
2023-02-17T17:33:43.454Z,100969.72
2023-02-17T17:36:50.938Z,100975.97
2023-02-17T17:39:56.170Z,100961.41
2023-02-17T17:43:00.656Z,100967.62
2023-02-17T17:46:12.233Z,100970.44
2023-02-17T17:49:18.719Z,100975.13
2023-02-17T17:52:22.933Z,100976.41
2023-02-17T17:55:29.726Z,100968.38
2023-02-17T17:58:39.449Z,100959.31
2023-02-17T18:01:47.024Z,100961.53
2023-02-17T18:04:56.171Z,100958.91
2023-02-17T18:08:02.540Z,100950.22
2023-02-17T18:11:12.027Z,100931.00
2023-02-17T18:14:19.981Z,100948.87
2023-02-17T18:17:25.426Z,100945.44
2023-02-17T18:20:30.147Z,100940.06
2023-02-17T18:23:35.422Z,100936.44
2023-02-17T18:26:40.964Z,100927.63
2023-02-17T18:29:46.801Z,100941.34
2023-02-17T18:32:54.713Z,100940.34
2023-02-17T18:36:11.316Z,100944.72
2023-02-17T18:39:15.874Z,100929.34
2023-02-17T18:42:23.090Z,100928.47
2023-02-17T18:45:28.383Z,100930.34
2023-02-17T18:48:34.818Z,100933.16
2023-02-17T18:51:43.258Z,100925.09
2023-02-17T18:54:48.704Z,100916.31
2023-02-17T18:57:56.728Z,100918.06
2023-02-17T19:01:02.393Z,100921.91
2023-02-17T19:04:09.788Z,100911.16
2023-02-17T19:07:18.948Z,100916.53
2023-02-17T19:10:28.086Z,100911.16
2023-02-17T19:13:33.739Z,100912.97
2023-02-17T19:16:40.078Z,100909.41
2023-02-17T19:19:44.863Z,100913.22
2023-02-17T19:22:50.096Z,100909.84
2023-02-17T19:25:55.651Z,100908.09
2023-02-17T19:29:00.428Z,100908.09
2023-02-17T19:32:06.383Z,100902.72
2023-02-17T19:35:11.775Z,100903.22
2023-02-17T19:38:16.854Z,100899.50
2023-02-17T19:41:22.730Z,100900.31
2023-02-17T19:44:27.471Z,100894.81
2023-02-17T19:47:32.264Z,100889.19
2023-02-17T19:50:39.331Z,100880.06
2023-02-17T19:53:44.978Z,100874.25
2023-02-17T19:56:51.183Z,100862.59
2023-02-17T19:59:56.197Z,100860.59
2023-02-17T20:03:01.982Z,100853.38
2023-02-17T20:06:11.656Z,100829.63
2023-02-17T20:09:20.786Z,100812.97
2023-02-17T20:12:25.682Z,100812.78
2023-02-17T20:15:30.735Z,100801.31
2023-02-17T20:18:37.730Z,100809.75
2023-02-17T20:21:46.668Z,100811.88
2023-02-17T20:24:56.843Z,100808.41
2023-02-17T20:28:02.072Z,100791.38
2023-02-17T20:31:08.189Z,100778.22
2023-02-17T20:34:32.134Z,100781.50
2023-02-17T20:37:37.752Z,100777.72
2023-02-17T20:40:43.561Z,100759.22
2023-02-17T20:43:49.747Z,100775.25
2023-02-17T20:46:55.999Z,100768.50
2023-02-17T20:50:00.446Z,100764.94
2023-02-17T20:53:04.770Z,100765.81
2023-02-17T20:56:19.817Z,100775.38
2023-02-17T20:59:25.076Z,100779.75
2023-02-17T21:02:29.967Z,100781.25
2023-02-17T21:05:36.298Z,100769.13
2023-02-17T21:08:42.004Z,100763.25
2023-02-17T21:11:47.998Z,100761.97
2023-02-17T21:14:53.573Z,100754.47
2023-02-17T21:17:58.468Z,100758.47
2023-02-17T21:21:03.707Z,100753.31
2023-02-17T21:24:08.009Z,100754.16
2023-02-17T21:27:13.074Z,100757.56
2023-02-17T21:30:19.025Z,100761.66
2023-02-17T21:33:23.604Z,100762.97
2023-02-17T21:36:29.603Z,100758.63
2023-02-17T21:39:34.073Z,100770.56
2023-02-17T21:42:59.576Z,100766.37
2023-02-17T21:46:10.013Z,100771.81
2023-02-17T21:49:14.686Z,100759.06
2023-02-17T21:52:18.920Z,100755.91
2023-02-17T21:55:23.673Z,100763.25
2023-02-17T21:58:29.319Z,100772.84
2023-02-17T22:01:33.172Z,100769.50
2023-02-17T22:04:37.235Z,100759.31
2023-02-17T22:07:40.697Z,100776.69
2023-02-17T22:10:45.006Z,100788.22
2023-02-17T22:13:48.655Z,100786.63
2023-02-17T22:16:52.509Z,100770.47
2023-02-17T22:19:57.263Z,100772.59
2023-02-17T22:23:00.885Z,100768.78
2023-02-17T22:26:14.437Z,100749.56
2023-02-17T22:29:18.127Z,100751.91
2023-02-17T22:32:21.542Z,100717.66
2023-02-17T22:35:25.193Z,100743.19
2023-02-17T22:38:29.014Z,100759.78
2023-02-17T22:41:33.876Z,100742.97
2023-02-17T22:44:37.453Z,100748.81
2023-02-17T22:47:40.912Z,100766.03
2023-02-17T22:50:44.307Z,100757.78
2023-02-17T22:53:49.027Z,100719.03
2023-02-17T22:56:52.299Z,100725.16
2023-02-17T22:59:56.520Z,100726.91
2023-02-17T23:02:59.779Z,100716.19
2023-02-17T23:06:09.342Z,100702.78
2023-02-17T23:09:17.193Z,100701.22
2023-02-17T23:12:21.989Z,100694.91
2023-02-17T23:15:39.430Z,100683.94
2023-02-17T23:18:43.023Z,100704.03
2023-02-17T23:21:55.025Z,100692.09
2023-02-17T23:24:59.312Z,100680.78
2023-02-17T23:28:02.765Z,100676.31
2023-02-17T23:31:10.408Z,100665.75
2023-02-17T23:34:15.948Z,100690.53
2023-02-17T23:37:19.450Z,100678.81
2023-02-17T23:40:22.650Z,100663.41
2023-02-17T23:43:26.527Z,100665.16
2023-02-17T23:46:29.828Z,100660.81
2023-02-17T23:49:33.557Z,100660.16
2023-02-17T23:52:36.874Z,100661.56
2023-02-17T23:55:40.506Z,100655.34
2023-02-17T23:58:44.632Z,100647.28
